sensor_id;sensor_type;location;lat;lon;timestamp;temperature;humidity
27940;DHT22;15275;51.716;14.324;2022-09-02T00:00:49;16.40;71.10
27940;DHT22;15275;51.716;14.324;2022-09-02T00:03:17;16.40;71.20
27940;DHT22;15275;51.716;14.324;2022-09-02T00:05:45;16.30;71.30
27940;DHT22;15275;51.716;14.324;2022-09-02T00:08:11;16.30;71.30
27940;DHT22;15275;51.716;14.324;2022-09-02T00:10:39;16.30;71.30
27940;DHT22;15275;51.716;14.324;2022-09-02T00:13:08;16.20;71.30
27940;DHT22;15275;51.716;14.324;2022-09-02T00:15:36;16.20;71.30
27940;DHT22;15275;51.716;14.324;2022-09-02T00:18:02;16.10;71.40
27940;DHT22;15275;51.716;14.324;2022-09-02T00:20:29;16.10;71.40
27940;DHT22;15275;51.716;14.324;2022-09-02T00:22:57;16.10;71.40
27940;DHT22;15275;51.716;14.324;2022-09-02T00:25:23;16.00;71.70
27940;DHT22;15275;51.716;14.324;2022-09-02T00:27:49;16.00;71.90
27940;DHT22;15275;51.716;14.324;2022-09-02T00:30:15;16.00;72.10
27940;DHT22;15275;51.716;14.324;2022-09-02T00:32:42;15.90;72.20
27940;DHT22;15275;51.716;14.324;2022-09-02T00:35:08;15.90;72.20
27940;DHT22;15275;51.716;14.324;2022-09-02T00:37:35;15.90;72.00
27940;DHT22;15275;51.716;14.324;2022-09-02T00:40:03;15.90;72.00
27940;DHT22;15275;51.716;14.324;2022-09-02T00:42:30;15.80;72.10
27940;DHT22;15275;51.716;14.324;2022-09-02T00:44:57;15.80;72.00
27940;DHT22;15275;51.716;14.324;2022-09-02T00:47:23;15.80;72.00
27940;DHT22;15275;51.716;14.324;2022-09-02T00:49:52;15.70;72.10
27940;DHT22;15275;51.716;14.324;2022-09-02T00:52:26;15.70;72.20
27940;DHT22;15275;51.716;14.324;2022-09-02T00:55:17;15.70;72.20
27940;DHT22;15275;51.716;14.324;2022-09-02T00:58:09;15.70;72.30
27940;DHT22;15275;51.716;14.324;2022-09-02T01:00:51;15.60;72.60
27940;DHT22;15275;51.716;14.324;2022-09-02T01:03:24;15.60;72.50
27940;DHT22;15275;51.716;14.324;2022-09-02T01:05:53;15.60;72.70
27940;DHT22;15275;51.716;14.324;2022-09-02T01:08:23;15.50;72.70
27940;DHT22;15275;51.716;14.324;2022-09-02T01:10:52;15.50;72.70
27940;DHT22;15275;51.716;14.324;2022-09-02T01:13:23;15.50;72.70
27940;DHT22;15275;51.716;14.324;2022-09-02T01:16:22;15.40;72.70
27940;DHT22;15275;51.716;14.324;2022-09-02T01:18:53;15.40;73.20
27940;DHT22;15275;51.716;14.324;2022-09-02T01:21:21;15.40;73.00
27940;DHT22;15275;51.716;14.324;2022-09-02T01:23:48;15.30;73.00
27940;DHT22;15275;51.716;14.324;2022-09-02T01:26:14;15.30;73.10
27940;DHT22;15275;51.716;14.324;2022-09-02T01:28:40;15.30;73.10
27940;DHT22;15275;51.716;14.324;2022-09-02T01:31:06;15.30;73.10
27940;DHT22;15275;51.716;14.324;2022-09-02T01:33:32;15.20;73.10
27940;DHT22;15275;51.716;14.324;2022-09-02T01:35:59;15.20;73.10
27940;DHT22;15275;51.716;14.324;2022-09-02T01:38:27;15.20;73.10
27940;DHT22;15275;51.716;14.324;2022-09-02T01:40:53;15.10;73.10
27940;DHT22;15275;51.716;14.324;2022-09-02T01:43:23;15.10;73.10
27940;DHT22;15275;51.716;14.324;2022-09-02T01:45:54;15.10;73.10
27940;DHT22;15275;51.716;14.324;2022-09-02T01:48:21;15.10;73.10
27940;DHT22;15275;51.716;14.324;2022-09-02T01:50:51;15.00;73.20
27940;DHT22;15275;51.716;14.324;2022-09-02T01:53:19;15.00;73.30
27940;DHT22;15275;51.716;14.324;2022-09-02T01:55:45;15.00;73.30
27940;DHT22;15275;51.716;14.324;2022-09-02T01:58:11;14.90;73.30
27940;DHT22;15275;51.716;14.324;2022-09-02T02:00:37;14.90;73.50
27940;DHT22;15275;51.716;14.324;2022-09-02T02:03:04;14.90;73.50
27940;DHT22;15275;51.716;14.324;2022-09-02T02:05:30;14.90;73.60
27940;DHT22;15275;51.716;14.324;2022-09-02T02:07:57;14.80;73.50
27940;DHT22;15275;51.716;14.324;2022-09-02T02:10:23;14.80;73.60
27940;DHT22;15275;51.716;14.324;2022-09-02T02:12:49;14.80;73.70
27940;DHT22;15275;51.716;14.324;2022-09-02T02:15:17;14.80;73.80
27940;DHT22;15275;51.716;14.324;2022-09-02T02:17:45;14.70;73.80
27940;DHT22;15275;51.716;14.324;2022-09-02T02:20:12;14.70;73.70
27940;DHT22;15275;51.716;14.324;2022-09-02T02:22:40;14.60;73.80
27940;DHT22;15275;51.716;14.324;2022-09-02T02:25:08;14.60;73.80
27940;DHT22;15275;51.716;14.324;2022-09-02T02:27:34;14.60;73.80
27940;DHT22;15275;51.716;14.324;2022-09-02T02:30:00;14.60;73.90
27940;DHT22;15275;51.716;14.324;2022-09-02T02:32:26;14.50;74.00
27940;DHT22;15275;51.716;14.324;2022-09-02T02:34:52;14.50;74.10
27940;DHT22;15275;51.716;14.324;2022-09-02T02:37:19;14.50;74.20
27940;DHT22;15275;51.716;14.324;2022-09-02T02:39:45;14.50;74.30
27940;DHT22;15275;51.716;14.324;2022-09-02T02:42:11;14.50;74.50
27940;DHT22;15275;51.716;14.324;2022-09-02T02:44:38;14.40;74.40
27940;DHT22;15275;51.716;14.324;2022-09-02T02:47:06;14.40;74.40
27940;DHT22;15275;51.716;14.324;2022-09-02T02:49:36;14.40;74.40
27940;DHT22;15275;51.716;14.324;2022-09-02T02:52:07;14.40;74.60
27940;DHT22;15275;51.716;14.324;2022-09-02T02:54:34;14.40;74.60
27940;DHT22;15275;51.716;14.324;2022-09-02T02:57:00;14.40;74.60
27940;DHT22;15275;51.716;14.324;2022-09-02T02:59:26;14.40;74.60
27940;DHT22;15275;51.716;14.324;2022-09-02T03:01:54;14.30;74.50
27940;DHT22;15275;51.716;14.324;2022-09-02T03:04:19;14.30;74.50
27940;DHT22;15275;51.716;14.324;2022-09-02T03:06:45;14.30;74.50
27940;DHT22;15275;51.716;14.324;2022-09-02T03:09:11;14.30;74.60
27940;DHT22;15275;51.716;14.324;2022-09-02T03:11:38;14.30;74.60
27940;DHT22;15275;51.716;14.324;2022-09-02T03:14:04;14.20;74.80
27940;DHT22;15275;51.716;14.324;2022-09-02T03:16:30;14.20;74.90
27940;DHT22;15275;51.716;14.324;2022-09-02T03:18:55;14.20;75.00
27940;DHT22;15275;51.716;14.324;2022-09-02T03:21:21;14.20;75.10
27940;DHT22;15275;51.716;14.324;2022-09-02T03:23:47;14.20;75.10
27940;DHT22;15275;51.716;14.324;2022-09-02T03:26:17;14.20;75.10
27940;DHT22;15275;51.716;14.324;2022-09-02T03:28:44;14.20;75.10
27940;DHT22;15275;51.716;14.324;2022-09-02T03:31:20;14.20;75.00
27940;DHT22;15275;51.716;14.324;2022-09-02T03:33:48;14.20;75.10
27940;DHT22;15275;51.716;14.324;2022-09-02T03:36:36;14.10;74.90
27940;DHT22;15275;51.716;14.324;2022-09-02T03:39:04;14.10;75.40
27940;DHT22;15275;51.716;14.324;2022-09-02T03:41:31;14.10;75.10
27940;DHT22;15275;51.716;14.324;2022-09-02T03:43:57;14.10;75.10
27940;DHT22;15275;51.716;14.324;2022-09-02T03:46:24;14.10;75.10
27940;DHT22;15275;51.716;14.324;2022-09-02T03:48:49;14.10;75.10
27940;DHT22;15275;51.716;14.324;2022-09-02T03:51:20;14.00;75.10
27940;DHT22;15275;51.716;14.324;2022-09-02T03:53:46;14.00;75.10
27940;DHT22;15275;51.716;14.324;2022-09-02T03:56:13;14.00;75.10
27940;DHT22;15275;51.716;14.324;2022-09-02T03:58:42;14.00;75.10
27940;DHT22;15275;51.716;14.324;2022-09-02T04:01:13;13.90;75.10
27940;DHT22;15275;51.716;14.324;2022-09-02T04:03:41;13.90;75.30
27940;DHT22;15275;51.716;14.324;2022-09-02T04:06:11;13.90;75.10
27940;DHT22;15275;51.716;14.324;2022-09-02T04:08:40;13.90;75.30
27940;DHT22;15275;51.716;14.324;2022-09-02T04:11:12;13.90;75.30
27940;DHT22;15275;51.716;14.324;2022-09-02T04:13:40;13.80;75.50
27940;DHT22;15275;51.716;14.324;2022-09-02T04:16:08;13.80;75.30
27940;DHT22;15275;51.716;14.324;2022-09-02T04:21:40;13.80;75.30
27940;DHT22;15275;51.716;14.324;2022-09-02T04:24:08;13.80;75.40
27940;DHT22;15275;51.716;14.324;2022-09-02T04:26:36;13.80;75.60
27940;DHT22;15275;51.716;14.324;2022-09-02T04:29:02;13.70;75.70
27940;DHT22;15275;51.716;14.324;2022-09-02T04:31:28;13.70;75.70
27940;DHT22;15275;51.716;14.324;2022-09-02T04:33:56;13.70;75.80
27940;DHT22;15275;51.716;14.324;2022-09-02T04:36:23;13.70;75.90
27940;DHT22;15275;51.716;14.324;2022-09-02T04:38:51;13.70;76.00
27940;DHT22;15275;51.716;14.324;2022-09-02T04:41:20;13.70;76.20
27940;DHT22;15275;51.716;14.324;2022-09-02T04:43:50;13.70;76.50
27940;DHT22;15275;51.716;14.324;2022-09-02T04:46:17;13.70;76.50
27940;DHT22;15275;51.716;14.324;2022-09-02T04:48:44;13.70;76.60
27940;DHT22;15275;51.716;14.324;2022-09-02T04:51:15;13.80;76.80
27940;DHT22;15275;51.716;14.324;2022-09-02T04:53:46;13.80;76.90
27940;DHT22;15275;51.716;14.324;2022-09-02T04:56:16;13.80;76.90
27940;DHT22;15275;51.716;14.324;2022-09-02T04:58:46;13.90;77.00
27940;DHT22;15275;51.716;14.324;2022-09-02T05:01:15;13.90;77.00
27940;DHT22;15275;51.716;14.324;2022-09-02T05:03:44;13.90;77.10
27940;DHT22;15275;51.716;14.324;2022-09-02T05:06:14;14.00;77.20
27940;DHT22;15275;51.716;14.324;2022-09-02T05:08:43;14.10;77.20
27940;DHT22;15275;51.716;14.324;2022-09-02T05:11:15;14.10;77.20
27940;DHT22;15275;51.716;14.324;2022-09-02T05:13:44;14.10;77.30
27940;DHT22;15275;51.716;14.324;2022-09-02T05:16:26;14.20;77.30
27940;DHT22;15275;51.716;14.324;2022-09-02T05:18:58;14.20;77.30
27940;DHT22;15275;51.716;14.324;2022-09-02T05:21:24;14.30;77.40
27940;DHT22;15275;51.716;14.324;2022-09-02T05:23:52;14.40;77.40
27940;DHT22;15275;51.716;14.324;2022-09-02T05:26:18;14.40;77.40
27940;DHT22;15275;51.716;14.324;2022-09-02T05:28:44;14.50;77.50
27940;DHT22;15275;51.716;14.324;2022-09-02T05:31:12;14.60;77.60
27940;DHT22;15275;51.716;14.324;2022-09-02T05:33:40;14.60;77.60
27940;DHT22;15275;51.716;14.324;2022-09-02T05:36:12;14.70;77.50
27940;DHT22;15275;51.716;14.324;2022-09-02T05:38:42;14.80;77.60
27940;DHT22;15275;51.716;14.324;2022-09-02T05:41:20;14.90;77.60
27940;DHT22;15275;51.716;14.324;2022-09-02T05:43:55;14.90;77.70
27940;DHT22;15275;51.716;14.324;2022-09-02T05:46:24;15.00;77.70
27940;DHT22;15275;51.716;14.324;2022-09-02T05:48:51;15.10;77.50
27940;DHT22;15275;51.716;14.324;2022-09-02T05:51:32;15.20;77.40
27940;DHT22;15275;51.716;14.324;2022-09-02T05:54:03;15.30;77.00
27940;DHT22;15275;51.716;14.324;2022-09-02T05:56:29;15.30;77.30
27940;DHT22;15275;51.716;14.324;2022-09-02T05:58:56;15.40;77.10
27940;DHT22;15275;51.716;14.324;2022-09-02T06:01:23;15.40;76.90
27940;DHT22;15275;51.716;14.324;2022-09-02T06:03:49;15.50;76.90
27940;DHT22;15275;51.716;14.324;2022-09-02T06:06:18;15.60;76.90
27940;DHT22;15275;51.716;14.324;2022-09-02T06:08:44;15.60;76.90
27940;DHT22;15275;51.716;14.324;2022-09-02T06:11:11;15.70;77.00
27940;DHT22;15275;51.716;14.324;2022-09-02T06:13:40;15.80;77.00
27940;DHT22;15275;51.716;14.324;2022-09-02T06:16:07;15.90;76.90
27940;DHT22;15275;51.716;14.324;2022-09-02T06:18:35;16.00;76.90
27940;DHT22;15275;51.716;14.324;2022-09-02T06:21:03;16.00;76.90
27940;DHT22;15275;51.716;14.324;2022-09-02T06:23:32;16.10;76.70
27940;DHT22;15275;51.716;14.324;2022-09-02T06:25:59;16.20;76.70
27940;DHT22;15275;51.716;14.324;2022-09-02T06:28:25;16.30;76.50
27940;DHT22;15275;51.716;14.324;2022-09-02T06:30:50;16.40;76.40
27940;DHT22;15275;51.716;14.324;2022-09-02T06:33:17;16.50;76.30
27940;DHT22;15275;51.716;14.324;2022-09-02T06:35:44;16.60;76.20
27940;DHT22;15275;51.716;14.324;2022-09-02T06:38:13;16.60;76.20
27940;DHT22;15275;51.716;14.324;2022-09-02T06:40:50;16.70;76.10
27940;DHT22;15275;51.716;14.324;2022-09-02T06:43:17;16.80;76.00
27940;DHT22;15275;51.716;14.324;2022-09-02T06:45:44;16.90;76.10
27940;DHT22;15275;51.716;14.324;2022-09-02T06:48:11;17.00;76.00
27940;DHT22;15275;51.716;14.324;2022-09-02T06:50:40;17.10;76.10
27940;DHT22;15275;51.716;14.324;2022-09-02T06:53:08;17.20;76.00
27940;DHT22;15275;51.716;14.324;2022-09-02T06:55:37;17.30;75.90
27940;DHT22;15275;51.716;14.324;2022-09-02T06:58:05;17.40;76.00
27940;DHT22;15275;51.716;14.324;2022-09-02T07:00:31;17.50;75.90
27940;DHT22;15275;51.716;14.324;2022-09-02T07:02:57;17.60;75.80
27940;DHT22;15275;51.716;14.324;2022-09-02T07:05:42;17.70;75.80
27940;DHT22;15275;51.716;14.324;2022-09-02T07:08:08;17.80;75.90
27940;DHT22;15275;51.716;14.324;2022-09-02T07:10:37;17.90;75.70
27940;DHT22;15275;51.716;14.324;2022-09-02T07:13:05;18.00;75.20
27940;DHT22;15275;51.716;14.324;2022-09-02T07:15:31;18.10;75.10
27940;DHT22;15275;51.716;14.324;2022-09-02T07:17:57;18.20;75.00
27940;DHT22;15275;51.716;14.324;2022-09-02T07:20:23;18.40;74.70
27940;DHT22;15275;51.716;14.324;2022-09-02T07:22:49;18.50;74.20
27940;DHT22;15275;51.716;14.324;2022-09-02T07:25:16;18.60;74.40
27940;DHT22;15275;51.716;14.324;2022-09-02T07:27:42;18.60;73.90
27940;DHT22;15275;51.716;14.324;2022-09-02T07:30:11;18.80;73.80
27940;DHT22;15275;51.716;14.324;2022-09-02T07:32:38;18.90;73.70
27940;DHT22;15275;51.716;14.324;2022-09-02T07:35:05;18.90;73.50
27940;DHT22;15275;51.716;14.324;2022-09-02T07:37:32;19.00;73.30
27940;DHT22;15275;51.716;14.324;2022-09-02T07:40:00;19.10;73.30
27940;DHT22;15275;51.716;14.324;2022-09-02T07:42:28;19.20;72.90
27940;DHT22;15275;51.716;14.324;2022-09-02T07:44:53;19.30;73.00
27940;DHT22;15275;51.716;14.324;2022-09-02T07:47:19;19.40;72.90
27940;DHT22;15275;51.716;14.324;2022-09-02T07:49:45;19.50;73.10
27940;DHT22;15275;51.716;14.324;2022-09-02T07:52:11;19.60;72.70
27940;DHT22;15275;51.716;14.324;2022-09-02T07:54:37;19.70;72.60
27940;DHT22;15275;51.716;14.324;2022-09-02T07:57:03;19.80;71.80
27940;DHT22;15275;51.716;14.324;2022-09-02T07:59:30;19.90;71.60
27940;DHT22;15275;51.716;14.324;2022-09-02T08:01:55;20.00;71.60
27940;DHT22;15275;51.716;14.324;2022-09-02T08:04:22;20.10;71.40
27940;DHT22;15275;51.716;14.324;2022-09-02T08:06:50;20.20;71.40
27940;DHT22;15275;51.716;14.324;2022-09-02T08:09:20;20.30;71.10
27940;DHT22;15275;51.716;14.324;2022-09-02T08:11:48;20.30;71.20
27940;DHT22;15275;51.716;14.324;2022-09-02T08:14:18;20.50;70.30
27940;DHT22;15275;51.716;14.324;2022-09-02T08:16:46;20.50;70.20
27940;DHT22;15275;51.716;14.324;2022-09-02T08:19:13;20.60;70.30
27940;DHT22;15275;51.716;14.324;2022-09-02T08:21:39;20.70;70.30
27940;DHT22;15275;51.716;14.324;2022-09-02T08:24:05;20.80;70.30
27940;DHT22;15275;51.716;14.324;2022-09-02T08:26:31;20.90;70.10
27940;DHT22;15275;51.716;14.324;2022-09-02T08:29:05;21.00;69.80
27940;DHT22;15275;51.716;14.324;2022-09-02T08:31:32;21.10;69.30
27940;DHT22;15275;51.716;14.324;2022-09-02T08:33:59;21.20;69.20
27940;DHT22;15275;51.716;14.324;2022-09-02T08:36:26;21.30;69.40
27940;DHT22;15275;51.716;14.324;2022-09-02T08:38:52;21.40;68.90
27940;DHT22;15275;51.716;14.324;2022-09-02T08:43:55;21.60;67.60
27940;DHT22;15275;51.716;14.324;2022-09-02T08:46:23;21.60;67.00
27940;DHT22;15275;51.716;14.324;2022-09-02T08:49:06;21.70;66.70
27940;DHT22;15275;51.716;14.324;2022-09-02T08:51:46;21.80;66.50
27940;DHT22;15275;51.716;14.324;2022-09-02T08:54:47;21.90;65.90
27940;DHT22;15275;51.716;14.324;2022-09-02T08:57:16;21.90;65.60
27940;DHT22;15275;51.716;14.324;2022-09-02T08:59:42;22.00;66.50
27940;DHT22;15275;51.716;14.324;2022-09-02T09:02:23;22.10;66.60
27940;DHT22;15275;51.716;14.324;2022-09-02T09:11:54;22.30;65.30
27940;DHT22;15275;51.716;14.324;2022-09-02T09:16:58;22.50;64.50
27940;DHT22;15275;51.716;14.324;2022-09-02T09:22:18;22.70;64.50
27940;DHT22;15275;51.716;14.324;2022-09-02T09:24:48;22.80;65.60
27940;DHT22;15275;51.716;14.324;2022-09-02T09:27:22;22.90;63.90
27940;DHT22;15275;51.716;14.324;2022-09-02T09:29:49;22.90;62.90
27940;DHT22;15275;51.716;14.324;2022-09-02T09:32:33;23.00;63.20
27940;DHT22;15275;51.716;14.324;2022-09-02T09:35:08;23.00;61.10
27940;DHT22;15275;51.716;14.324;2022-09-02T09:37:38;23.10;61.90
27940;DHT22;15275;51.716;14.324;2022-09-02T09:43:11;23.10;63.10
27940;DHT22;15275;51.716;14.324;2022-09-02T09:45:39;23.10;60.70
27940;DHT22;15275;51.716;14.324;2022-09-02T09:48:25;23.20;62.70
27940;DHT22;15275;51.716;14.324;2022-09-02T09:53:27;23.40;62.40
27940;DHT22;15275;51.716;14.324;2022-09-02T09:55:57;23.40;62.20
27940;DHT22;15275;51.716;14.324;2022-09-02T10:01:33;23.60;61.80
27940;DHT22;15275;51.716;14.324;2022-09-02T10:04:28;23.70;60.30
27940;DHT22;15275;51.716;14.324;2022-09-02T10:06:55;23.80;60.80
27940;DHT22;15275;51.716;14.324;2022-09-02T10:09:37;23.90;62.30
27940;DHT22;15275;51.716;14.324;2022-09-02T10:14:38;24.20;61.30
27940;DHT22;15275;51.716;14.324;2022-09-02T10:26:30;24.40;58.20
27940;DHT22;15275;51.716;14.324;2022-09-02T10:29:14;24.40;58.00
27940;DHT22;15275;51.716;14.324;2022-09-02T10:31:56;24.40;59.20
27940;DHT22;15275;51.716;14.324;2022-09-02T10:34:36;24.40;58.70
27940;DHT22;15275;51.716;14.324;2022-09-02T10:37:24;24.30;59.30
27940;DHT22;15275;51.716;14.324;2022-09-02T10:40:08;24.30;57.10
27940;DHT22;15275;51.716;14.324;2022-09-02T10:43:03;24.20;57.00
27940;DHT22;15275;51.716;14.324;2022-09-02T10:45:45;24.20;57.50
27940;DHT22;15275;51.716;14.324;2022-09-02T10:56:23;24.00;57.30
27940;DHT22;15275;51.716;14.324;2022-09-02T10:59:10;23.90;57.50
27940;DHT22;15275;51.716;14.324;2022-09-02T11:02:24;23.90;57.90
27940;DHT22;15275;51.716;14.324;2022-09-02T11:04:58;23.80;58.00
27940;DHT22;15275;51.716;14.324;2022-09-02T11:07:51;23.80;59.20
27940;DHT22;15275;51.716;14.324;2022-09-02T11:10:30;23.80;58.60
27940;DHT22;15275;51.716;14.324;2022-09-02T11:13:03;23.70;59.50
27940;DHT22;15275;51.716;14.324;2022-09-02T11:15:44;23.70;59.70
27940;DHT22;15275;51.716;14.324;2022-09-02T11:18:21;23.70;58.90
27940;DHT22;15275;51.716;14.324;2022-09-02T11:21:49;23.80;59.10
27940;DHT22;15275;51.716;14.324;2022-09-02T11:24:51;23.80;58.50
27940;DHT22;15275;51.716;14.324;2022-09-02T11:27:33;23.80;59.30
27940;DHT22;15275;51.716;14.324;2022-09-02T11:30:15;23.80;58.70
27940;DHT22;15275;51.716;14.324;2022-09-02T11:35:40;23.80;59.20
27940;DHT22;15275;51.716;14.324;2022-09-02T11:38:25;23.90;59.00
27940;DHT22;15275;51.716;14.324;2022-09-02T12:04:23;24.60;58.20
27940;DHT22;15275;51.716;14.324;2022-09-02T12:09:48;24.70;56.50
27940;DHT22;15275;51.716;14.324;2022-09-02T12:17:39;24.90;57.10
27940;DHT22;15275;51.716;14.324;2022-09-02T12:23:03;24.90;56.60
27940;DHT22;15275;51.716;14.324;2022-09-02T12:28:20;24.90;56.90
27940;DHT22;15275;51.716;14.324;2022-09-02T12:35:57;25.00;54.90
27940;DHT22;15275;51.716;14.324;2022-09-02T12:43:42;25.10;54.60
27940;DHT22;15275;51.716;14.324;2022-09-02T12:47:07;25.20;54.90
27940;DHT22;15275;51.716;14.324;2022-09-02T12:52:05;25.40;53.50
27940;DHT22;15275;51.716;14.324;2022-09-02T12:54:44;25.40;54.70
27940;DHT22;15275;51.716;14.324;2022-09-02T12:57:15;25.50;55.90
27940;DHT22;15275;51.716;14.324;2022-09-02T12:59:43;25.60;55.40
27940;DHT22;15275;51.716;14.324;2022-09-02T13:12:03;25.70;52.90
27940;DHT22;15275;51.716;14.324;2022-09-02T13:26:39;25.90;54.50
27940;DHT22;15275;51.716;14.324;2022-09-02T13:29:19;25.90;52.20
27940;DHT22;15275;51.716;14.324;2022-09-02T13:32:12;26.00;52.60
27940;DHT22;15275;51.716;14.324;2022-09-02T13:34:46;26.00;53.30
27940;DHT22;15275;51.716;14.324;2022-09-02T13:37:36;26.10;54.30
27940;DHT22;15275;51.716;14.324;2022-09-02T13:40:19;26.20;52.10
27940;DHT22;15275;51.716;14.324;2022-09-02T13:42:53;26.20;51.30
27940;DHT22;15275;51.716;14.324;2022-09-02T13:45:25;26.30;53.30
27940;DHT22;15275;51.716;14.324;2022-09-02T13:47:57;26.40;52.80
27940;DHT22;15275;51.716;14.324;2022-09-02T13:50:26;26.40;52.00
27940;DHT22;15275;51.716;14.324;2022-09-02T13:52:59;26.40;51.70
27940;DHT22;15275;51.716;14.324;2022-09-02T13:55:27;26.50;50.90
27940;DHT22;15275;51.716;14.324;2022-09-02T13:57:57;26.50;51.80
27940;DHT22;15275;51.716;14.324;2022-09-02T14:00:36;26.40;52.00
27940;DHT22;15275;51.716;14.324;2022-09-02T14:03:18;26.50;51.30
27940;DHT22;15275;51.716;14.324;2022-09-02T14:05:48;26.50;52.30
27940;DHT22;15275;51.716;14.324;2022-09-02T14:08:19;26.50;51.90
27940;DHT22;15275;51.716;14.324;2022-09-02T14:10:48;26.50;51.20
27940;DHT22;15275;51.716;14.324;2022-09-02T14:13:16;26.50;51.60
27940;DHT22;15275;51.716;14.324;2022-09-02T14:15:42;26.50;51.30
27940;DHT22;15275;51.716;14.324;2022-09-02T14:18:26;26.40;51.10
27940;DHT22;15275;51.716;14.324;2022-09-02T14:21:09;26.40;49.70
27940;DHT22;15275;51.716;14.324;2022-09-02T14:23:51;26.40;50.60
27940;DHT22;15275;51.716;14.324;2022-09-02T14:26:35;26.40;50.50
27940;DHT22;15275;51.716;14.324;2022-09-02T14:29:06;26.40;49.70
27940;DHT22;15275;51.716;14.324;2022-09-02T14:31:35;26.40;50.50
27940;DHT22;15275;51.716;14.324;2022-09-02T14:34:02;26.50;51.10
27940;DHT22;15275;51.716;14.324;2022-09-02T14:39:13;26.60;50.80
27940;DHT22;15275;51.716;14.324;2022-09-02T14:41:51;26.70;49.40
27940;DHT22;15275;51.716;14.324;2022-09-02T14:44:32;26.70;48.70
27940;DHT22;15275;51.716;14.324;2022-09-02T14:47:02;26.70;49.20
27940;DHT22;15275;51.716;14.324;2022-09-02T14:49:38;26.70;49.40
27940;DHT22;15275;51.716;14.324;2022-09-02T14:52:20;26.60;50.10
27940;DHT22;15275;51.716;14.324;2022-09-02T14:54:51;26.60;48.10
27940;DHT22;15275;51.716;14.324;2022-09-02T14:57:25;26.50;48.60
27940;DHT22;15275;51.716;14.324;2022-09-02T14:59:54;26.40;47.70
27940;DHT22;15275;51.716;14.324;2022-09-02T15:05:00;26.20;48.60
27940;DHT22;15275;51.716;14.324;2022-09-02T15:07:27;26.20;48.80
27940;DHT22;15275;51.716;14.324;2022-09-02T15:09:54;26.10;48.80
27940;DHT22;15275;51.716;14.324;2022-09-02T15:12:23;26.10;48.50
27940;DHT22;15275;51.716;14.324;2022-09-02T15:14:54;26.10;48.10
27940;DHT22;15275;51.716;14.324;2022-09-02T15:17:21;26.00;48.50
27940;DHT22;15275;51.716;14.324;2022-09-02T15:19:47;25.90;48.70
27940;DHT22;15275;51.716;14.324;2022-09-02T15:22:14;25.90;48.80
27940;DHT22;15275;51.716;14.324;2022-09-02T15:24:41;25.80;48.80
27940;DHT22;15275;51.716;14.324;2022-09-02T15:27:12;25.70;48.70
27940;DHT22;15275;51.716;14.324;2022-09-02T15:29:38;25.60;48.40
27940;DHT22;15275;51.716;14.324;2022-09-02T15:32:04;25.50;49.10
27940;DHT22;15275;51.716;14.324;2022-09-02T15:34:31;25.30;49.00
27940;DHT22;15275;51.716;14.324;2022-09-02T15:36:59;25.20;49.10
27940;DHT22;15275;51.716;14.324;2022-09-02T15:39:26;25.10;49.20
27940;DHT22;15275;51.716;14.324;2022-09-02T15:41:53;25.00;49.50
27940;DHT22;15275;51.716;14.324;2022-09-02T15:44:22;24.90;50.00
27940;DHT22;15275;51.716;14.324;2022-09-02T15:46:51;24.90;49.80
27940;DHT22;15275;51.716;14.324;2022-09-02T15:49:18;24.80;50.10
27940;DHT22;15275;51.716;14.324;2022-09-02T15:51:44;24.80;49.80
27940;DHT22;15275;51.716;14.324;2022-09-02T15:54:12;24.70;50.00
27940;DHT22;15275;51.716;14.324;2022-09-02T15:56:41;24.70;50.00
27940;DHT22;15275;51.716;14.324;2022-09-02T15:59:10;24.70;50.20
27940;DHT22;15275;51.716;14.324;2022-09-02T16:01:39;24.80;49.90
27940;DHT22;15275;51.716;14.324;2022-09-02T16:04:08;24.80;49.90
27940;DHT22;15275;51.716;14.324;2022-09-02T16:06:37;24.80;49.80
27940;DHT22;15275;51.716;14.324;2022-09-02T16:09:08;24.80;49.50
27940;DHT22;15275;51.716;14.324;2022-09-02T16:11:44;24.80;49.70
27940;DHT22;15275;51.716;14.324;2022-09-02T16:14:12;24.80;50.00
27940;DHT22;15275;51.716;14.324;2022-09-02T16:16:39;24.90;50.40
27940;DHT22;15275;51.716;14.324;2022-09-02T16:19:06;24.90;50.50
27940;DHT22;15275;51.716;14.324;2022-09-02T16:21:33;24.90;50.20
27940;DHT22;15275;51.716;14.324;2022-09-02T16:23:59;25.00;50.10
27940;DHT22;15275;51.716;14.324;2022-09-02T16:26:29;25.00;50.00
27940;DHT22;15275;51.716;14.324;2022-09-02T16:28:58;25.00;49.60
27940;DHT22;15275;51.716;14.324;2022-09-02T16:31:27;25.00;50.00
27940;DHT22;15275;51.716;14.324;2022-09-02T16:33:57;25.00;50.40
27940;DHT22;15275;51.716;14.324;2022-09-02T16:36:26;25.00;49.80
27940;DHT22;15275;51.716;14.324;2022-09-02T16:38:52;25.00;50.10
27940;DHT22;15275;51.716;14.324;2022-09-02T16:41:33;25.00;49.90
27940;DHT22;15275;51.716;14.324;2022-09-02T16:44:24;24.90;48.70
27940;DHT22;15275;51.716;14.324;2022-09-02T16:46:51;24.80;49.30
27940;DHT22;15275;51.716;14.324;2022-09-02T16:49:19;24.80;50.00
27940;DHT22;15275;51.716;14.324;2022-09-02T16:51:48;24.70;50.20
27940;DHT22;15275;51.716;14.324;2022-09-02T16:54:15;24.60;50.30
27940;DHT22;15275;51.716;14.324;2022-09-02T16:56:42;24.50;50.10
27940;DHT22;15275;51.716;14.324;2022-09-02T16:59:10;24.40;50.30
27940;DHT22;15275;51.716;14.324;2022-09-02T17:01:37;24.30;50.40
27940;DHT22;15275;51.716;14.324;2022-09-02T17:04:05;24.20;50.60
27940;DHT22;15275;51.716;14.324;2022-09-02T17:06:32;24.10;50.50
27940;DHT22;15275;51.716;14.324;2022-09-02T17:08:58;24.00;50.50
27940;DHT22;15275;51.716;14.324;2022-09-02T17:11:32;23.90;50.50
27940;DHT22;15275;51.716;14.324;2022-09-02T17:14:04;23.80;50.30
27940;DHT22;15275;51.716;14.324;2022-09-02T17:16:37;23.70;50.40
27940;DHT22;15275;51.716;14.324;2022-09-02T17:19:04;23.60;50.80
27940;DHT22;15275;51.716;14.324;2022-09-02T17:21:34;23.50;51.00
27940;DHT22;15275;51.716;14.324;2022-09-02T17:24:04;23.50;51.20
27940;DHT22;15275;51.716;14.324;2022-09-02T17:26:32;23.40;51.90
27940;DHT22;15275;51.716;14.324;2022-09-02T17:28:59;23.30;52.20
27940;DHT22;15275;51.716;14.324;2022-09-02T17:31:31;23.20;52.40
27940;DHT22;15275;51.716;14.324;2022-09-02T17:33:59;23.10;52.10
27940;DHT22;15275;51.716;14.324;2022-09-02T17:36:28;23.00;52.40
27940;DHT22;15275;51.716;14.324;2022-09-02T17:39:02;23.00;52.70
27940;DHT22;15275;51.716;14.324;2022-09-02T17:41:29;22.90;52.30
27940;DHT22;15275;51.716;14.324;2022-09-02T17:44:14;22.70;51.90